Espaço - Ciências - Fenômenos Naturais
Meteógrafos Informações Meteorológicas em tempo real

Aeroporto Castro Pinto

Histórico do Tempo
Temperatura atual: 28 graus 82 F    Umidade relativa: 65 %
Velocidade do vento: 16 nós 28 Km/h    Direção: 190 graus S
Ajuste do altímetro ..: 1015 HPA
Visibilidade: Ótima    Tempo presente: Parcialmente Nublado

Observação
Céu nublado a 3000 Pés.

Data Hora BRTTempo°CUmidadePressãoVentoVisib.
22/06 - 10:55   Parcialmente Nublado 28° 65% 1015 Sul/28 km/h OK
22/06 - 09:55   Parcialmente Nublado 27° 69% 1015 Sul/23 km/h 9999
22/06 - 08:55   Não Disponível 25° 78% 1015 Sul-sudoeste/14 km/h 9999
22/06 - 07:55   Não Disponível 23° 88% 1014 Sul-sudoeste/10 km/h 9999
22/06 - 06:55   Não Disponível 22° 88% 1014 Sul-sudoeste/7 km/h OK
22/06 - 05:55   Não Disponível 22° 88% 1014 Oeste/5 km/h 9999
22/06 - 04:55   Poucas nuvens esparsas 22° 94% 1014 Sul-sudoeste/14 km/h 9999
22/06 - 03:55   Chovendo fraco 22° 94% 1014 Sudoeste/10 km/h 5000
22/06 - 02:55   Poucas nuvens esparsas 22° 94% 1014 Sul-sudoeste/10 km/h 9999
22/06 - 01:55   Chovendo fraco 22° 94% 1015 Sul-sudoeste/16 km/h 3000
22/06 - 00:55   Poucas nuvens esparsas 22° 94% 1015 Sudoeste/9 km/h OK
21/06 - 23:55   Não Disponível 22° 94% 1016 Sudoeste/7 km/h OK
21/06 - 22:55   Não Disponível 23° 88% 1016 Sudoeste/9 km/h OK
21/06 - 21:55   Parcialmente Nublado 23° 94% 1016 Sul-sudoeste/12 km/h OK
21/06 - 20:55   Parcialmente Nublado 23° 94% 1015 Sul-sudoeste/12 km/h OK
21/06 - 19:55   Nuvens esparsas 24° 83% 1015 Sul-sudoeste/12 km/h OK
21/06 - 18:55   Não Disponível 25° 78% 1014 Sul/14 km/h OK
21/06 - 17:55   Parcialmente Nublado 26° 74% 1014 Sul-sudeste/18 km/h OK
21/06 - 16:55   Poucas nuvens esparsas 27° 69% 1014 Sul-sudeste/25 km/h OK
21/06 - 15:55   Parcialmente Nublado 28° 70% 1013 Sul-sudeste/28 km/h OK
21/06 - 14:55   Poucas nuvens esparsas 26° 88% 1014 Sudeste/19 km/h OK
21/06 - 13:55   Parcialmente Nublado 26° 78% 1014 Sudeste/27 km/h OK
21/06 - 12:55   Parcialmente Nublado 29° 66% 1015 Sul-sudeste/27 km/h OK
21/06 - 11:55   Chovendo fraco 26° 78% 1015 Sul-sudeste/30 km/h OK


Apolo11.com - Todos os direitos reservados - 2000 - 2017
Política de Privacidade   |     Termo de Uso e Licenciamento   |  -   Entre em Contato

"O destino de qualquer nação, em qualquer época, depende das opiniões de seus jovens entre 5 e 20 anos" - Goethe